Lost Creek, West Virginia
Current Conditions -  °F | °C
As of 3:53 PM on Saturday 25 Oct 2014 (Local Time) from KCKB Reporting Station
Few Clouds Few Clouds  
Wind Chill: 65°   Ceiling: Unl
Heat Index: 65°   Visibility: 10mi
Dew Point: 48°   Wind: 16mph
Humidity: 54%   Direction: 240°WSW
Pressure: 29.87"   Gusts: 23mph
Location:  39.16°N, 80.35°W
Report Text: KCKB 251953Z 24014G20KT 10SM FEW048 18/09 A2987 RMK AO2 SLP109 T01830089
Loading
Personal Weather Stations






























Interactive Weather Map
Tropical Storm Tracking
New forecast layout! Learn more

10-Day Weather Forecast

Advertisements
Track Severe Weather on mobile